Time;durP1;ratioP1;P1;durP2;ratioP2;P2;SDS_P1;SDS_P2;PMS_P1;PMS_P2;Temp;Humidity;BMP_temperature;BMP_pressure;BME280_temperature;BME280_humidity;BME280_pressure;Samples;Min_cycle;Max_cycle;Signal;HPM_P1;HPM_P2
2022/11/05 00:09:28;;;;;;;;;;;;;;;9.91;69.04;99491.75;5088836;28;19930;-85
2022/11/05 00:17:21;;;;;;;;;;;;;;;9.98;69.02;99482.88;5088068;28;19922;-85
2022/11/05 00:19:46;;;;;;;;;;;;;;;9.87;69.32;99490.09;5089380;28;19916;-85
2022/11/05 00:25:17;;;;;;;;;;;;;;;9.87;69.67;99479.56;5088762;28;19926;-84
2022/11/05 00:27:43;;;;;;;;;;;;;;;9.88;68.90;99485.69;5089128;28;19916;-85
2022/11/05 00:30:09;;;;;;;;;;;;;;;9.92;68.54;99484.75;5088070;28;19920;-85
2022/11/05 00:32:35;;;;;;;;;;;;;;;9.86;68.97;99485.69;5100855;28;19916;-85
2022/11/05 00:35:00;;;;;;;;;;;;;;;9.91;69.11;99480.34;5108429;28;19930;-85
2022/11/05 00:37:26;;;;;;;;;;;;;;;9.64;69.74;99477.25;5108798;28;20367;-85
2022/11/05 00:39:51;;;;;;;;;;;;;;;9.71;69.88;99473.63;5108674;28;20362;-88
2022/11/05 00:45:02;;;;;;;;;;;;;;;9.70;70.17;99477.16;5095611;28;20004;-88
2022/11/05 00:50:11;;;;;;;;;;;;;;;9.80;68.55;99480.53;5088675;28;19923;-87
2022/11/05 00:52:55;;;;;;;;;;;;;;;9.71;68.27;99478.03;5098947;28;19924;-87
2022/11/05 00:55:32;;;;;;;;;;;;;;;9.41;68.45;99481.06;5108611;28;19954;-87
2022/11/05 00:57:57;;;;;;;;;;;;;;;9.28;68.57;99480.38;5107670;28;19926;-87
2022/11/05 01:00:24;;;;;;;;;;;;;;;9.25;68.72;99479.53;5108283;28;19916;-86
2022/11/05 01:02:49;;;;;;;;;;;;;;;9.13;69.23;99480.56;5107524;28;19920;-86
2022/11/05 01:05:14;;;;;;;;;;;;;;;9.21;69.54;99478.72;5097265;28;19966;-91
2022/11/05 01:07:40;;;;;;;;;;;;;;;9.30;69.22;99469.84;5108281;28;20405;-87
2022/11/05 01:10:05;;;;;;;;;;;;;;;9.37;68.76;99470.59;5108730;28;19920;-87
2022/11/05 01:12:32;;;;;;;;;;;;;;;9.40;68.99;99470.56;5107243;28;19924;-88
2022/11/05 01:14:57;;;;;;;;;;;;;;;9.46;68.65;99470.47;5108352;28;19969;-87
2022/11/05 01:17:23;;;;;;;;;;;;;;;9.42;69.02;99464.41;5106606;28;20611;-86
2022/11/05 01:19:48;;;;;;;;;;;;;;;9.61;68.26;99462.38;5100194;28;19920;-86
2022/11/05 01:22:13;;;;;;;;;;;;;;;9.56;68.14;99463.31;5087594;28;19973;-89
2022/11/05 01:24:39;;;;;;;;;;;;;;;9.39;69.17;99455.66;5087669;28;19916;-86
2022/11/05 01:27:04;;;;;;;;;;;;;;;9.27;69.32;99462.84;5087359;28;20028;-86
2022/11/05 01:29:29;;;;;;;;;;;;;;;9.36;69.39;99451.31;5102068;28;20446;-86
2022/11/05 01:31:54;;;;;;;;;;;;;;;9.28;69.76;99453.16;5107942;28;19919;-86
2022/11/05 01:34:20;;;;;;;;;;;;;;;9.34;69.76;99447.81;5107741;28;20002;-87
2022/11/05 01:36:45;;;;;;;;;;;;;;;9.41;68.82;99448.63;5101396;28;19922;-86
2022/11/05 01:39:10;;;;;;;;;;;;;;;9.30;67.49;99446.16;5104176;28;20398;-86
2022/11/05 01:41:36;;;;;;;;;;;;;;;9.17;67.13;99441.94;5107215;28;19916;-85
2022/11/05 01:44:02;;;;;;;;;;;;;;;8.96;67.67;99430.81;5107260;28;19915;-86
2022/11/05 01:46:33;;;;;;;;;;;;;;;8.99;67.72;99441.28;5106274;28;20010;-86
2022/11/05 01:49:09;;;;;;;;;;;;;;;9.09;67.54;99437.63;5085625;28;20382;-85
2022/11/05 01:51:34;;;;;;;;;;;;;;;9.00;68.16;99429.00;5087040;28;19916;-86
2022/11/05 01:54:05;;;;;;;;;;;;;;;9.08;68.56;99435.00;5087345;28;20448;-86
2022/11/05 01:56:42;;;;;;;;;;;;;;;8.93;68.59;99423.81;5087656;28;19916;-87
2022/11/05 01:59:13;;;;;;;;;;;;;;;8.77;69.16;99428.38;5087471;28;19919;-86
2022/11/05 02:01:39;;;;;;;;;;;;;;;8.74;69.78;99414.38;5087500;28;20030;-87
2022/11/05 02:04:07;;;;;;;;;;;;;;;8.85;69.04;99417.78;5104260;28;20018;-86
2022/11/05 02:06:35;;;;;;;;;;;;;;;8.85;69.56;99427.41;5106986;28;20006;-87
2022/11/05 02:09:01;;;;;;;;;;;;;;;8.91;69.97;99425.59;5106331;28;20281;-87
2022/11/05 02:11:26;;;;;;;;;;;;;;;8.91;69.52;99414.19;5107195;28;19941;-86
2022/11/05 02:13:51;;;;;;;;;;;;;;;8.85;70.06;99420.41;5106714;28;19991;-86
2022/11/05 02:16:23;;;;;;;;;;;;;;;8.98;69.86;99409.72;5107258;28;19916;-86
2022/11/05 02:18:58;;;;;;;;;;;;;;;9.06;70.14;99405.22;5105999;28;20274;-87
2022/11/05 02:21:23;;;;;;;;;;;;;;;9.00;69.56;99400.91;5107569;28;19920;-86
2022/11/05 02:23:53;;;;;;;;;;;;;;;8.99;69.15;99406.19;5105982;28;19919;-88
2022/11/05 02:26:19;;;;;;;;;;;;;;;8.85;69.47;99402.00;5107160;28;19923;-87
2022/11/05 02:29:02;;;;;;;;;;;;;;;8.88;69.58;99403.69;5106965;28;19916;-87
2022/11/05 02:31:35;;;;;;;;;;;;;;;8.82;70.00;99412.56;5106802;28;19916;-87
2022/11/05 02:34:09;;;;;;;;;;;;;;;8.54;71.21;99407.63;5105768;28;20110;-87
2022/11/05 02:36:53;;;;;;;;;;;;;;;8.60;71.28;99404.03;5102744;28;20367;-86
2022/11/05 02:39:18;;;;;;;;;;;;;;;8.53;72.07;99408.50;5107957;28;20389;-86
2022/11/05 02:41:59;;;;;;;;;;;;;;;8.75;71.25;99414.38;5110881;28;19926;-87
2022/11/05 02:44:43;;;;;;;;;;;;;;;8.77;71.16;99409.97;5110635;28;19920;-87
2022/11/05 02:47:22;;;;;;;;;;;;;;;8.59;71.19;99412.84;5109640;28;20313;-85
2022/11/05 02:49:53;;;;;;;;;;;;;;;8.49;71.38;99408.56;5110341;28;20016;-86
2022/11/05 02:52:39;;;;;;;;;;;;;;;8.58;71.38;99413.72;5110436;28;19916;-87
2022/11/05 02:55:04;;;;;;;;;;;;;;;8.53;70.99;99420.78;5110158;28;19969;-86
2022/11/05 02:57:32;;;;;;;;;;;;;;;8.65;69.69;99415.38;5110578;28;19912;-86
2022/11/05 03:00:03;;;;;;;;;;;;;;;8.66;69.33;99417.09;5110325;27;19968;-86
2022/11/05 03:02:29;;;;;;;;;;;;;;;8.41;67.44;99419.97;5109797;28;19972;-86
2022/11/05 03:04:54;;;;;;;;;;;;;;;7.92;68.14;99420.44;5110477;28;19919;-85
2022/11/05 03:07:46;;;;;;;;;;;;;;;7.67;70.51;99418.00;5110727;28;20371;-85
2022/11/05 03:10:14;;;;;;;;;;;;;;;7.83;70.52;99421.41;5106756;28;19967;-85
2022/11/05 03:12:51;;;;;;;;;;;;;;;7.70;72.18;99422.38;5101935;28;19930;-85
2022/11/05 03:15:26;;;;;;;;;;;;;;;7.86;71.02;99429.25;5089152;28;20016;-87
2022/11/05 03:18:10;;;;;;;;;;;;;;;7.81;70.89;99425.78;5090704;28;19943;-85
2022/11/05 03:20:44;;;;;;;;;;;;;;;7.83;71.05;99425.78;5087874;28;20314;-85
2022/11/05 03:23:21;;;;;;;;;;;;;;;7.96;71.02;99421.31;5089818;28;19928;-88
2022/11/05 03:25:52;;;;;;;;;;;;;;;8.03;70.98;99416.00;5089861;28;19912;-86
2022/11/05 03:28:21;;;;;;;;;;;;;;;8.15;70.07;99419.38;5102418;28;21030;-86
2022/11/05 03:30:49;;;;;;;;;;;;;;;8.05;70.04;99418.59;5109762;28;20010;-86
2022/11/05 03:33:18;;;;;;;;;;;;;;;8.03;69.66;99422.97;5110016;28;19961;-86
2022/11/05 03:35:52;;;;;;;;;;;;;;;8.19;69.94;99418.47;5103640;28;19916;-86
2022/11/05 03:38:21;;;;;;;;;;;;;;;8.09;69.54;99416.81;5088051;28;19975;-85
2022/11/05 03:40:49;;;;;;;;;;;;;;;8.02;69.96;99414.25;5089897;28;19916;-86
2022/11/05 03:43:15;;;;;;;;;;;;;;;7.94;70.44;99417.81;5089618;28;19928;-86
2022/11/05 03:45:42;;;;;;;;;;;;;;;7.95;70.19;99416.94;5097425;28;19919;-86
2022/11/05 03:48:10;;;;;;;;;;;;;;;8.07;70.78;99415.06;5109707;28;20378;-87
2022/11/05 03:50:41;;;;;;;;;;;;;;;8.01;70.00;99415.09;5108517;28;19922;-86
2022/11/05 03:53:10;;;;;;;;;;;;;;;8.03;70.39;99417.72;5109792;28;19915;-86
2022/11/05 03:55:39;;;;;;;;;;;;;;;8.02;70.03;99416.88;5106076;28;20377;-86
2022/11/05 03:58:05;;;;;;;;;;;;;;;7.79;70.57;99413.56;5097973;28;19916;-86
2022/11/05 04:00:31;;;;;;;;;;;;;;;7.97;70.11;99412.53;5089310;28;19966;-85
2022/11/05 04:02:56;;;;;;;;;;;;;;;7.96;70.03;99409.03;5126346;27;20376;-85
2022/11/05 04:05:22;;;;;;;;;;;;;;;7.93;70.07;99402.94;5128753;27;20346;-85
2022/11/05 04:13:23;;;;;;;;;;;;;;;7.77;69.64;99416.22;5089047;28;19916;-85
2022/11/05 04:18:33;;;;;;;;;;;;;;;7.75;70.01;99410.09;5090072;28;19946;-86
2022/11/05 04:26:26;;;;;;;;;;;;;;;7.65;70.89;99417.16;5100829;28;20061;-86
2022/11/05 04:31:35;;;;;;;;;;;;;;;7.67;71.81;99415.38;5092984;28;19966;-84
2022/11/05 04:34:00;;;;;;;;;;;;;;;7.61;71.26;99418.06;5090378;28;19959;-85
2022/11/05 04:36:26;;;;;;;;;;;;;;;7.58;71.24;99436.47;5088673;28;20360;-85
2022/11/05 04:38:51;;;;;;;;;;;;;;;7.69;70.25;99442.53;5088459;28;20682;-85
2022/11/05 04:41:17;;;;;;;;;;;;;;;7.75;69.48;99438.09;5088136;28;19920;-86
2022/11/05 04:43:42;;;;;;;;;;;;;;;7.68;69.70;99434.66;5088292;28;19920;-87
2022/11/05 04:46:08;;;;;;;;;;;;;;;7.38;69.72;99441.84;5086530;28;20382;-87
2022/11/05 04:48:33;;;;;;;;;;;;;;;7.30;70.06;99444.50;5088153;28;20480;-85
2022/11/05 04:50:59;;;;;;;;;;;;;;;7.44;69.86;99444.44;5088208;28;19916;-85
2022/11/05 04:53:24;;;;;;;;;;;;;;;7.50;69.26;99448.78;5087893;28;19916;-85
2022/11/05 04:55:49;;;;;;;;;;;;;;;7.18;71.19;99452.44;5088487;28;19912;-84
2022/11/05 04:58:14;;;;;;;;;;;;;;;7.41;70.75;99443.59;5088221;28;19920;-85
2022/11/05 05:00:40;;;;;;;;;;;;;;;7.50;71.15;99446.16;5088013;28;19916;-85
2022/11/05 05:03:05;;;;;;;;;;;;;;;7.44;71.60;99454.06;5087961;28;19916;-86
2022/11/05 05:05:30;;;;;;;;;;;;;;;7.53;70.27;99456.63;5086191;28;20317;-84
2022/11/05 05:08:03;;;;;;;;;;;;;;;7.34;70.50;99466.38;5087880;28;19955;-85
2022/11/05 05:10:28;;;;;;;;;;;;;;;7.19;70.00;99472.56;5087615;28;19922;-85
2022/11/05 05:12:54;;;;;;;;;;;;;;;7.30;69.86;99476.00;5092599;28;19919;-86
2022/11/05 05:15:19;;;;;;;;;;;;;;;7.30;70.24;99473.38;5087578;28;20011;-86
2022/11/05 05:17:49;;;;;;;;;;;;;;;7.32;70.33;99471.63;5097410;27;19984;-87
2022/11/05 05:22:58;;;;;;;;;;;;;;;7.45;70.05;99482.91;5095276;28;19945;-87
2022/11/05 05:25:23;;;;;;;;;;;;;;;7.41;69.63;99481.19;5089998;28;19919;-86
2022/11/05 05:27:49;;;;;;;;;;;;;;;7.43;69.39;99491.69;5092539;28;19931;-89
2022/11/05 05:30:14;;;;;;;;;;;;;;;7.20;69.61;99499.66;5087697;28;20656;-82
2022/11/05 05:32:40;;;;;;;;;;;;;;;7.10;69.94;99490.97;5087673;28;19916;-86
2022/11/05 05:35:05;;;;;;;;;;;;;;;7.07;69.94;99494.47;5087480;28;19944;-87
2022/11/05 05:37:30;;;;;;;;;;;;;;;6.96;69.62;99501.50;5087189;28;20467;-89
2022/11/05 05:39:56;;;;;;;;;;;;;;;6.79;70.52;99507.66;5087764;28;19922;-89
2022/11/05 05:42:21;;;;;;;;;;;;;;;6.98;69.80;99508.50;5087823;28;19946;-88
2022/11/05 05:44:47;;;;;;;;;;;;;;;7.15;69.00;99507.53;5087489;28;19919;-88
2022/11/05 05:47:12;;;;;;;;;;;;;;;7.16;69.17;99501.44;5100677;28;20959;-92
2022/11/05 05:49:38;;;;;;;;;;;;;;;7.15;69.81;99510.16;5107719;28;19920;-87
2022/11/05 05:52:03;;;;;;;;;;;;;;;7.19;70.78;99500.56;5109944;28;20659;-86
2022/11/05 05:54:29;;;;;;;;;;;;;;;7.38;70.95;99501.34;5119690;28;20407;-88
2022/11/05 05:56:54;;;;;;;;;;;;;;;7.55;71.12;99504.72;5126352;28;19979;-88
2022/11/05 05:59:19;;;;;;;;;;;;;;;7.76;69.63;99506.38;5111693;28;19915;-88
2022/11/05 06:01:45;;;;;;;;;;;;;;;7.56;71.23;99514.38;5107175;28;20376;-87
2022/11/05 06:04:10;;;;;;;;;;;;;;;7.70;71.57;99522.16;5094757;28;20452;-87
2022/11/05 06:06:35;;;;;;;;;;;;;;;7.82;72.12;99510.72;5086706;28;19923;-89
2022/11/05 06:09:01;;;;;;;;;;;;;;;8.28;71.82;99507.72;5086659;28;19919;-90
2022/11/05 06:11:27;;;;;;;;;;;;;;;8.21;73.52;99525.28;5086986;28;19916;-88
2022/11/05 06:13:53;;;;;;;;;;;;;;;8.58;73.37;99524.13;5100986;28;20419;-87
2022/11/05 06:16:18;;;;;;;;;;;;;;;8.55;74.65;99511.03;5108346;27;19923;-88
2022/11/05 06:18:44;;;;;;;;;;;;;;;8.90;75.19;99512.41;5091380;28;19933;-87
2022/11/05 06:21:10;;;;;;;;;;;;;;;9.07;75.57;99513.09;5091423;28;19919;-87
2022/11/05 06:23:37;;;;;;;;;;;;;;;9.54;74.44;99520.41;5110075;28;19920;-85
2022/11/05 06:26:03;;;;;;;;;;;;;;;9.54;76.03;99515.13;5111535;27;20635;-88
2022/11/05 06:28:29;;;;;;;;;;;;;;;9.79;76.76;99519.19;5110892;28;19927;-87
2022/11/05 06:30:55;;;;;;;;;;;;;;;9.97;76.91;99512.75;5111535;28;20313;-87
2022/11/05 06:33:20;;;;;;;;;;;;;;;10.21;76.19;99516.75;5101321;27;19919;-88
2022/11/05 06:35:45;;;;;;;;;;;;;;;10.41;75.97;99517.34;5111358;28;20005;-89
2022/11/05 06:38:11;;;;;;;;;;;;;;;10.25;75.51;99520.22;5095440;28;19920;-88
2022/11/05 06:40:36;;;;;;;;;;;;;;;10.44;76.13;99515.56;5090813;28;19916;-90
2022/11/05 06:43:01;;;;;;;;;;;;;;;10.52;75.79;99523.34;5105386;28;20413;-91
2022/11/05 06:45:26;;;;;;;;;;;;;;;11.01;74.81;99518.91;5098581;28;19927;-89
2022/11/05 06:47:55;;;;;;;;;;;;;;;11.23;72.96;99519.31;5090104;28;19916;-88
2022/11/05 06:50:21;;;;;;;;;;;;;;;11.53;71.92;99514.31;5091596;28;19923;-87
2022/11/05 06:52:51;;;;;;;;;;;;;;;11.70;71.15;99501.59;5091186;28;20553;-88
2022/11/05 06:55:16;;;;;;;;;;;;;;;11.90;70.15;99510.84;5090521;28;19920;-88
2022/11/05 06:57:42;;;;;;;;;;;;;;;12.17;69.12;99519.91;5091124;28;20294;-90
2022/11/05 07:00:07;;;;;;;;;;;;;;;12.21;69.25;99518.06;5090970;28;20401;-86
2022/11/05 07:02:33;;;;;;;;;;;;;;;12.40;68.98;99511.41;5091965;28;19920;-87
2022/11/05 07:04:58;;;;;;;;;;;;;;;12.87;68.15;99517.22;5098467;28;20405;-88
2022/11/05 07:07:23;;;;;;;;;;;;;;;12.86;66.02;99510.19;5101013;28;19967;-90
2022/11/05 07:09:50;;;;;;;;;;;;;;;12.81;66.25;99516.53;5103377;28;19919;-92
2022/11/05 07:12:17;;;;;;;;;;;;;;;12.74;66.88;99518.47;5098444;28;19912;-90
2022/11/05 07:14:42;;;;;;;;;;;;;;;12.49;68.67;99508.53;5112740;28;19915;-91
2022/11/05 07:17:08;;;;;;;;;;;;;;;12.58;68.94;99514.50;5112918;28;19998;-91
2022/11/05 07:19:34;;;;;;;;;;;;;;;12.94;68.06;99509.13;5112654;27;19937;-90
2022/11/05 07:21:59;;;;;;;;;;;;;;;13.30;66.32;99507.22;5112812;28;20310;-91
2022/11/05 07:24:24;;;;;;;;;;;;;;;13.09;66.56;99508.69;5109664;28;19915;-90
2022/11/05 07:26:56;;;;;;;;;;;;;;;12.77;68.02;99506.94;5101305;28;19919;-95
2022/11/05 07:29:21;;;;;;;;;;;;;;;13.34;66.03;99503.59;5090636;28;19954;-89
2022/11/05 07:31:47;;;;;;;;;;;;;;;12.74;67.16;99507.88;5092338;28;19977;-90
2022/11/05 07:34:12;;;;;;;;;;;;;;;12.83;67.02;99501.47;5090137;28;20304;-91
2022/11/05 07:36:38;;;;;;;;;;;;;;;13.06;66.91;99495.53;5098021;28;19919;-94
2022/11/05 07:39:03;;;;;;;;;;;;;;;13.35;65.13;99486.78;5099773;28;19924;-86
2022/11/05 07:41:31;;;;;;;;;;;;;;;13.52;64.93;99480.13;5101888;28;19923;-92
2022/11/05 07:43:57;;;;;;;;;;;;;;;14.07;62.81;99483.69;5089711;28;19970;-90
2022/11/05 07:46:22;;;;;;;;;;;;;;;14.26;61.82;99478.63;5089835;28;19923;-89
2022/11/05 07:48:47;;;;;;;;;;;;;;;14.44;61.80;99470.94;5106593;28;20321;-89
2022/11/05 07:51:13;;;;;;;;;;;;;;;14.68;60.21;99463.97;5110079;28;20357;-89
2022/11/05 07:53:38;;;;;;;;;;;;;;;14.96;60.39;99461.16;5109224;28;19923;-89
2022/11/05 07:56:04;;;;;;;;;;;;;;;15.46;58.41;99460.19;5109625;28;20026;-90
2022/11/05 07:58:29;;;;;;;;;;;;;;;15.42;58.41;99455.06;5089182;28;19920;-89
2022/11/05 08:00:55;;;;;;;;;;;;;;;15.43;58.99;99456.78;5103020;28;19951;-89
2022/11/05 08:03:20;;;;;;;;;;;;;;;15.28;57.70;99450.28;5105197;28;19974;-89
2022/11/05 08:05:46;;;;;;;;;;;;;;;14.79;60.24;99447.66;5106060;27;19959;-90
2022/11/05 08:08:16;;;;;;;;;;;;;;;15.20;59.14;99451.44;5087601;28;19993;-91
2022/11/05 08:10:41;;;;;;;;;;;;;;;15.71;57.95;99452.13;5098486;28;19915;-90
2022/11/05 08:13:09;;;;;;;;;;;;;;;15.71;57.95;99437.97;5109408;28;20594;-90
2022/11/05 08:15:34;;;;;;;;;;;;;;;15.67;58.28;99446.97;5108032;28;19915;-90
2022/11/05 08:18:02;;;;;;;;;;;;;;;15.68;58.65;99446.91;5109205;28;19911;-93
2022/11/05 08:20:28;;;;;;;;;;;;;;;15.99;57.40;99443.03;5092807;28;19919;-90
2022/11/05 08:22:54;;;;;;;;;;;;;;;15.99;57.81;99448.38;5088880;28;19916;-89
2022/11/05 08:25:19;;;;;;;;;;;;;;;16.42;56.04;99459.88;5087655;28;19920;-91
2022/11/05 08:27:45;;;;;;;;;;;;;;;16.66;55.62;99449.06;5089385;28;19933;-89
2022/11/05 08:30:10;;;;;;;;;;;;;;;16.58;55.30;99456.56;5088812;28;19962;-90
2022/11/05 08:32:36;;;;;;;;;;;;;;;16.43;56.54;99458.91;5088418;28;20369;-90
2022/11/05 08:35:01;;;;;;;;;;;;;;;16.64;55.54;99457.13;5090379;28;19912;-93
2022/11/05 08:37:26;;;;;;;;;;;;;;;16.22;56.72;99439.44;5087505;28;19912;-92
2022/11/05 08:39:52;;;;;;;;;;;;;;;16.04;57.79;99445.53;5088385;28;19916;-93
2022/11/05 08:42:17;;;;;;;;;;;;;;;16.22;57.11;99446.53;5071362;28;19920;-91
2022/11/05 08:44:42;;;;;;;;;;;;;;;15.84;57.83;99452.50;5088749;28;19918;-91
2022/11/05 08:47:08;;;;;;;;;;;;;;;16.42;57.02;99441.25;5089020;28;19916;-89
2022/11/05 08:49:33;;;;;;;;;;;;;;;16.09;57.72;99449.69;5100121;27;19919;-89
2022/11/05 08:51:58;;;;;;;;;;;;;;;16.43;56.76;99442.09;5129462;27;20296;-90
2022/11/05 08:54:24;;;;;;;;;;;;;;;16.66;55.78;99441.09;5123444;27;19916;-91
2022/11/05 08:56:49;;;;;;;;;;;;;;;16.16;57.04;99436.13;5108948;28;19923;-88
2022/11/05 08:59:14;;;;;;;;;;;;;;;16.10;57.27;99432.81;5108110;28;19957;-85
2022/11/05 09:01:40;;;;;;;;;;;;;;;16.25;56.92;99433.97;5108024;28;20301;-89
2022/11/05 09:04:06;;;;;;;;;;;;;;;16.32;56.46;99431.91;5107121;28;20333;-88
2022/11/05 09:06:31;;;;;;;;;;;;;;;16.21;57.12;99432.38;5108240;28;19916;-87
2022/11/05 09:08:56;;;;;;;;;;;;;;;16.25;56.49;99428.66;5106984;28;19916;-85
2022/11/05 09:11:22;;;;;;;;;;;;;;;16.16;57.11;99420.16;5108509;28;19954;-84
2022/11/05 09:13:48;;;;;;;;;;;;;;;16.30;56.41;99436.44;5107644;28;19935;-88
2022/11/05 09:16:17;;;;;;;;;;;;;;;16.49;55.85;99425.84;5101365;27;19923;-89
2022/11/05 09:18:43;;;;;;;;;;;;;;;16.33;56.31;99425.66;5099634;27;19976;-89
2022/11/05 09:21:08;;;;;;;;;;;;;;;16.55;55.68;99414.94;5093264;28;19916;-88
2022/11/05 09:23:33;;;;;;;;;;;;;;;16.58;56.60;99422.78;5100225;28;19916;-89
2022/11/05 09:25:58;;;;;;;;;;;;;;;16.98;55.17;99421.03;5107159;28;20389;-89
2022/11/05 09:28:24;;;;;;;;;;;;;;;17.03;54.60;99411.97;5101789;28;19916;-88
2022/11/05 09:30:51;;;;;;;;;;;;;;;16.88;54.86;99422.38;5089240;28;19930;-88
2022/11/05 09:33:21;;;;;;;;;;;;;;;16.49;56.70;99409.88;5096582;28;19916;-88
2022/11/05 09:35:47;;;;;;;;;;;;;;;16.87;55.15;99395.81;5089155;28;19920;-87
2022/11/05 09:38:13;;;;;;;;;;;;;;;16.87;55.26;99404.69;5088595;28;19912;-86
2022/11/05 09:40:43;;;;;;;;;;;;;;;16.93;55.05;99408.84;5095542;28;19985;-89
2022/11/05 09:43:15;;;;;;;;;;;;;;;17.24;54.52;99408.31;5097821;28;19912;-87
2022/11/05 09:45:42;;;;;;;;;;;;;;;17.15;54.87;99398.09;5095179;28;20297;-88
2022/11/05 09:48:11;;;;;;;;;;;;;;;17.33;54.07;99401.66;5102811;28;19912;-86
2022/11/05 09:50:39;;;;;;;;;;;;;;;17.24;54.60;99397.66;5133617;28;19920;-88
2022/11/05 09:53:05;;;;;;;;;;;;;;;17.44;54.11;99391.38;5134065;28;19912;-89
2022/11/05 09:55:41;;;;;;;;;;;;;;;17.54;54.46;99389.09;5125248;28;19919;-89
2022/11/05 09:58:42;;;;;;;;;;;;;;;17.54;54.08;99381.97;5107598;28;20409;-88
2022/11/05 10:01:13;;;;;;;;;;;;;;;17.80;53.35;99378.97;5063112;28;20014;-90
2022/11/05 10:03:42;;;;;;;;;;;;;;;17.79;53.85;99372.75;5107730;28;19915;-89
2022/11/05 10:06:10;;;;;;;;;;;;;;;17.76;53.95;99364.91;5106953;28;20385;-89
2022/11/05 10:08:41;;;;;;;;;;;;;;;17.67;54.10;99363.56;5108061;28;19911;-91
2022/11/05 10:11:16;;;;;;;;;;;;;;;17.75;54.40;99362.31;5107974;28;19915;-87
2022/11/05 10:13:46;;;;;;;;;;;;;;;17.85;54.76;99356.44;5107935;28;19922;-90
2022/11/05 10:16:26;;;;;;;;;;;;;;;17.92;54.65;99362.38;5107296;28;19916;-88
2022/11/05 10:18:54;;;;;;;;;;;;;;;17.90;58.97;99350.91;5106536;28;20008;-89
2022/11/05 10:21:19;;;;;;;;;;;;;;;18.37;54.14;99341.41;5107585;28;19955;-90
2022/11/05 10:23:46;;;;;;;;;;;;;;;18.60;53.60;99333.03;5107206;28;20000;-88
2022/11/05 10:26:13;;;;;;;;;;;;;;;18.87;55.88;99327.13;5106401;28;19919;-88
2022/11/05 10:28:38;;;;;;;;;;;;;;;18.48;52.58;99343.50;5106909;28;20014;-88
2022/11/05 10:31:07;;;;;;;;;;;;;;;18.66;54.70;99337.19;5108072;28;20019;-89
2022/11/05 10:33:34;;;;;;;;;;;;;;;18.49;53.11;99330.06;5105869;28;19922;-90
2022/11/05 10:36:02;;;;;;;;;;;;;;;18.28;53.31;99334.72;5107024;28;19922;-87
2022/11/05 10:38:28;;;;;;;;;;;;;;;18.48;53.57;99332.81;5107319;28;19916;-91
2022/11/05 10:40:57;;;;;;;;;;;;;;;18.12;53.04;99325.78;5107288;28;19923;-86
2022/11/05 10:43:31;;;;;;;;;;;;;;;18.18;53.23;99326.34;5107019;28;19911;-88
2022/11/05 10:46:09;;;;;;;;;;;;;;;18.50;52.59;99321.09;5107298;28;20389;-88
2022/11/05 10:48:37;;;;;;;;;;;;;;;18.43;52.33;99320.56;5101600;28;19927;-91
2022/11/05 10:51:04;;;;;;;;;;;;;;;18.42;52.68;99324.16;5100671;28;19912;-90
2022/11/05 10:53:31;;;;;;;;;;;;;;;18.54;51.91;99314.66;5106110;28;19919;-93
2022/11/05 10:55:59;;;;;;;;;;;;;;;18.63;51.71;99310.63;5106694;28;19915;-88
2022/11/05 10:58:30;;;;;;;;;;;;;;;18.38;52.43;99311.06;5127258;27;19919;-89
2022/11/05 11:00:55;;;;;;;;;;;;;;;18.54;52.48;99298.63;5130143;27;19915;-88
2022/11/05 11:03:40;;;;;;;;;;;;;;;18.62;51.87;99306.22;5131268;27;19912;-88
2022/11/05 11:06:11;;;;;;;;;;;;;;;18.89;51.75;99306.56;5130804;27;19926;-88
2022/11/05 11:08:36;;;;;;;;;;;;;;;18.83;51.56;99296.19;5131703;27;19933;-85
2022/11/05 11:11:04;;;;;;;;;;;;;;;18.76;51.62;99302.78;5112482;27;20367;-87
2022/11/05 11:13:50;;;;;;;;;;;;;;;18.62;51.27;99290.19;5089639;28;19915;-86
2022/11/05 11:16:26;;;;;;;;;;;;;;;18.62;51.44;99284.84;5089107;28;19911;-86
2022/11/05 11:19:02;;;;;;;;;;;;;;;19.03;50.70;99275.50;5097490;28;19915;-85
2022/11/05 11:21:28;;;;;;;;;;;;;;;19.08;50.09;99278.81;5095456;28;19926;-86
2022/11/05 11:24:05;;;;;;;;;;;;;;;19.30;49.61;99279.28;5091178;28;19919;-86
2022/11/05 11:26:32;;;;;;;;;;;;;;;19.17;49.51;99270.25;5108903;28;20309;-85
2022/11/05 11:29:06;;;;;;;;;;;;;;;19.14;50.11;99267.75;5102410;28;19945;-87
2022/11/05 11:31:32;;;;;;;;;;;;;;;19.07;50.39;99269.03;5100076;27;19919;-85
2022/11/05 11:34:05;;;;;;;;;;;;;;;19.42;49.81;99276.88;5110009;27;19915;-87
2022/11/05 11:36:46;;;;;;;;;;;;;;;19.27;49.87;99274.09;5100842;28;19962;-85
2022/11/05 11:39:37;;;;;;;;;;;;;;;19.19;50.13;99257.66;5089441;28;19919;-85
2022/11/05 11:42:08;;;;;;;;;;;;;;;19.01;50.46;99261.38;5098222;28;19924;-89
2022/11/05 11:44:40;;;;;;;;;;;;;;;19.12;50.05;99261.63;5093642;27;19996;-87
2022/11/05 11:47:10;;;;;;;;;;;;;;;19.48;49.49;99261.31;5098048;28;19915;-86
2022/11/05 11:49:40;;;;;;;;;;;;;;;19.19;49.66;99254.97;5097863;27;19984;-87
2022/11/05 11:52:24;;;;;;;;;;;;;;;19.19;49.71;99251.44;5099967;28;19916;-87
2022/11/05 11:54:50;;;;;;;;;;;;;;;19.29;49.90;99255.31;5104537;28;20510;-86
2022/11/05 11:57:20;;;;;;;;;;;;;;;19.31;49.38;99250.75;5099345;27;19911;-92
2022/11/05 11:59:46;;;;;;;;;;;;;;;19.24;49.16;99254.72;5109622;28;19920;-90
2022/11/05 12:02:30;;;;;;;;;;;;;;;19.31;48.80;99256.09;5109373;27;19911;-90
2022/11/05 12:05:07;;;;;;;;;;;;;;;19.21;49.17;99252.22;5098864;28;19920;-90
2022/11/05 12:07:42;;;;;;;;;;;;;;;19.48;48.81;99250.63;5090824;28;19962;-87
2022/11/05 12:10:13;;;;;;;;;;;;;;;19.64;48.48;99237.19;5100159;28;19920;-88
2022/11/05 12:12:45;;;;;;;;;;;;;;;19.31;48.94;99238.22;5098955;28;20726;-88
2022/11/05 12:15:10;;;;;;;;;;;;;;;19.43;48.57;99242.00;5102035;28;20014;-89
2022/11/05 12:17:56;;;;;;;;;;;;;;;19.40;48.60;99246.66;5093282;28;20002;-87
2022/11/05 12:20:31;;;;;;;;;;;;;;;19.35;47.97;99238.91;5098026;27;19976;-88
2022/11/05 12:23:14;;;;;;;;;;;;;;;19.47;47.72;99234.66;5094296;28;20009;-87
2022/11/05 12:25:58;;;;;;;;;;;;;;;19.37;48.36;99236.13;5106493;28;20702;-87
2022/11/05 12:28:43;;;;;;;;;;;;;;;19.27;49.08;99238.50;5106695;27;20416;-89
2022/11/05 12:31:20;;;;;;;;;;;;;;;19.51;49.14;99236.22;5089284;27;19920;-90
2022/11/05 12:33:55;;;;;;;;;;;;;;;19.13;49.29;99234.78;5095734;28;19915;-89
2022/11/05 12:36:35;;;;;;;;;;;;;;;19.36;49.07;99245.97;5102829;28;19962;-88
2022/11/05 12:39:03;;;;;;;;;;;;;;;19.54;48.70;99248.50;5095866;28;19919;-88
2022/11/05 12:41:34;;;;;;;;;;;;;;;19.55;48.72;99235.06;5103790;28;19922;-88
2022/11/05 12:44:09;;;;;;;;;;;;;;;19.51;48.81;99233.53;5097899;28;19986;-87
2022/11/05 12:46:34;;;;;;;;;;;;;;;19.74;48.31;99233.94;5098486;28;19916;-86
2022/11/05 12:49:02;;;;;;;;;;;;;;;19.66;48.51;99229.06;5094348;27;20709;-89
2022/11/05 12:51:37;;;;;;;;;;;;;;;19.45;49.26;99242.75;5109668;27;19963;-90
2022/11/05 12:54:14;;;;;;;;;;;;;;;19.50;49.00;99235.31;5095853;28;19920;-86
2022/11/05 12:56:44;;;;;;;;;;;;;;;19.17;49.50;99223.94;5098260;28;20389;-89
2022/11/05 12:59:15;;;;;;;;;;;;;;;19.43;49.43;99231.31;5093234;28;19919;-87
2022/11/05 13:01:43;;;;;;;;;;;;;;;19.54;48.74;99222.66;5106176;28;19916;-86
2022/11/05 13:04:23;;;;;;;;;;;;;;;19.25;49.41;99235.06;5105345;28;19930;-87
2022/11/05 13:06:51;;;;;;;;;;;;;;;19.56;48.92;99225.22;5096917;28;20429;-88
2022/11/05 13:09:17;;;;;;;;;;;;;;;19.22;49.34;99219.19;5095919;28;19919;-90
2022/11/05 13:11:51;;;;;;;;;;;;;;;19.20;49.64;99223.75;5108879;27;19915;-91
2022/11/05 13:14:20;;;;;;;;;;;;;;;19.36;49.47;99232.59;5106090;27;19981;-91
2022/11/05 13:16:52;;;;;;;;;;;;;;;19.27;49.60;99233.16;5096452;28;20317;-93
2022/11/05 13:19:20;;;;;;;;;;;;;;;19.37;49.55;99237.03;5110596;28;19916;-92
2022/11/05 13:21:52;;;;;;;;;;;;;;;19.20;50.00;99210.38;5113224;27;19940;-93
2022/11/05 13:24:22;;;;;;;;;;;;;;;19.21;50.09;99222.81;5128171;27;19920;-90
2022/11/05 13:26:50;;;;;;;;;;;;;;;19.29;49.91;99223.22;5129268;27;19943;-92
2022/11/05 13:29:18;;;;;;;;;;;;;;;19.18;50.21;99223.00;5129822;27;20392;-89
2022/11/05 13:31:50;;;;;;;;;;;;;;;19.24;50.47;99230.66;5129327;27;20437;-91
2022/11/05 13:34:15;;;;;;;;;;;;;;;19.30;50.28;99227.63;5130439;27;19986;-92
2022/11/05 13:39:27;;;;;;;;;;;;;;;19.31;50.36;99240.06;5128447;27;19934;-91
2022/11/05 13:41:53;;;;;;;;;;;;;;;19.39;50.58;99226.22;5129173;27;19915;-94